sensor_id;sensor_type;location;lat;lon;timestamp;P1;durP1;ratioP1;P2;durP2;ratioP2
22711;SDS011;11523;50.390;8.072;2022-08-20T04:00:35;5.47;;;4.97;;
22711;SDS011;11523;50.390;8.072;2022-08-20T04:05:28;5.50;;;5.00;;
22711;SDS011;11523;50.390;8.072;2022-08-20T04:07:55;5.60;;;5.10;;
22711;SDS011;11523;50.390;8.072;2022-08-20T04:10:22;5.30;;;4.80;;
22711;SDS011;11523;50.390;8.072;2022-08-20T04:12:49;5.57;;;5.07;;
22711;SDS011;11523;50.390;8.072;2022-08-20T04:15:16;5.47;;;4.97;;
22711;SDS011;11523;50.390;8.072;2022-08-20T04:17:43;5.70;;;5.10;;
22711;SDS011;11523;50.390;8.072;2022-08-20T04:20:10;5.80;;;5.13;;
22711;SDS011;11523;50.390;8.072;2022-08-20T04:22:36;6.60;;;4.70;;
22711;SDS011;11523;50.390;8.072;2022-08-20T04:25:04;5.45;;;5.05;;
22711;SDS011;11523;50.390;8.072;2022-08-20T04:27:30;5.63;;;5.13;;
22711;SDS011;11523;50.390;8.072;2022-08-20T04:29:59;5.80;;;5.30;;
22711;SDS011;11523;50.390;8.072;2022-08-20T04:32:27;5.93;;;5.43;;
22711;SDS011;11523;50.390;8.072;2022-08-20T04:34:53;6.15;;;5.30;;
22711;SDS011;11523;50.390;8.072;2022-08-20T04:37:20;5.65;;;5.07;;
22711;SDS011;11523;50.390;8.072;2022-08-20T04:39:46;5.00;;;4.60;;
22711;SDS011;11523;50.390;8.072;2022-08-20T04:42:33;5.15;;;4.18;;
22711;SDS011;11523;50.390;8.072;2022-08-20T04:44:59;4.15;;;3.85;;
22711;SDS011;11523;50.390;8.072;2022-08-20T04:47:25;5.65;;;3.65;;
22711;SDS011;11523;50.390;8.072;2022-08-20T04:49:51;3.42;;;3.00;;
22711;SDS011;11523;50.390;8.072;2022-08-20T04:52:17;3.60;;;3.20;;
22711;SDS011;11523;50.390;8.072;2022-08-20T04:54:43;2.88;;;2.63;;
22711;SDS011;11523;50.390;8.072;2022-08-20T04:57:11;2.83;;;2.63;;
22711;SDS011;11523;50.390;8.072;2022-08-20T04:59:37;2.65;;;2.45;;
22711;SDS011;11523;50.390;8.072;2022-08-20T05:02:04;3.17;;;2.75;;
22711;SDS011;11523;50.390;8.072;2022-08-20T05:04:30;3.28;;;2.97;;
22711;SDS011;11523;50.390;8.072;2022-08-20T05:06:56;3.20;;;2.95;;
22711;SDS011;11523;50.390;8.072;2022-08-20T05:09:21;2.85;;;2.65;;
22711;SDS011;11523;50.390;8.072;2022-08-20T05:11:47;3.10;;;2.80;;
22711;SDS011;11523;50.390;8.072;2022-08-20T05:14:13;3.75;;;3.42;;
22711;SDS011;11523;50.390;8.072;2022-08-20T05:16:39;5.10;;;3.80;;
22711;SDS011;11523;50.390;8.072;2022-08-20T05:19:06;4.75;;;3.92;;
22711;SDS011;11523;50.390;8.072;2022-08-20T05:21:32;4.20;;;3.53;;
22711;SDS011;11523;50.390;8.072;2022-08-20T05:23:58;4.80;;;3.97;;
22711;SDS011;11523;50.390;8.072;2022-08-20T05:26:24;4.15;;;3.83;;
22711;SDS011;11523;50.390;8.072;2022-08-20T05:28:51;4.80;;;4.40;;
22711;SDS011;11523;50.390;8.072;2022-08-20T05:31:16;4.88;;;4.47;;
22711;SDS011;11523;50.390;8.072;2022-08-20T05:33:43;5.93;;;4.15;;
22711;SDS011;11523;50.390;8.072;2022-08-20T05:36:09;4.80;;;4.40;;
22711;SDS011;11523;50.390;8.072;2022-08-20T05:38:35;5.22;;;4.53;;
22711;SDS011;11523;50.390;8.072;2022-08-20T05:41:02;6.07;;;5.57;;
22711;SDS011;11523;50.390;8.072;2022-08-20T05:43:28;6.45;;;5.95;;
22711;SDS011;11523;50.390;8.072;2022-08-20T05:45:55;6.68;;;6.18;;
22711;SDS011;11523;50.390;8.072;2022-08-20T05:48:22;6.45;;;5.93;;
22711;SDS011;11523;50.390;8.072;2022-08-20T05:50:49;7.15;;;6.50;;
22711;SDS011;11523;50.390;8.072;2022-08-20T05:53:17;6.78;;;6.18;;
22711;SDS011;11523;50.390;8.072;2022-08-20T05:55:43;6.65;;;6.05;;
22711;SDS011;11523;50.390;8.072;2022-08-20T05:58:18;6.63;;;5.88;;
22711;SDS011;11523;50.390;8.072;2022-08-20T06:00:45;5.75;;;5.35;;
22711;SDS011;11523;50.390;8.072;2022-08-20T06:03:11;5.90;;;5.30;;
22711;SDS011;11523;50.390;8.072;2022-08-20T06:05:55;6.57;;;5.90;;
22711;SDS011;11523;50.390;8.072;2022-08-20T06:08:21;9.23;;;6.38;;
22711;SDS011;11523;50.390;8.072;2022-08-20T06:10:48;6.07;;;5.45;;
22711;SDS011;11523;50.390;8.072;2022-08-20T06:13:14;5.95;;;5.45;;
22711;SDS011;11523;50.390;8.072;2022-08-20T06:15:40;6.03;;;5.43;;
22711;SDS011;11523;50.390;8.072;2022-08-20T06:18:07;6.15;;;5.55;;
22711;SDS011;11523;50.390;8.072;2022-08-20T06:20:34;5.90;;;5.40;;
22711;SDS011;11523;50.390;8.072;2022-08-20T06:23:00;6.72;;;6.13;;
22711;SDS011;11523;50.390;8.072;2022-08-20T06:25:27;5.53;;;5.03;;
22711;SDS011;11523;50.390;8.072;2022-08-20T06:27:54;5.70;;;5.10;;
22711;SDS011;11523;50.390;8.072;2022-08-20T06:30:20;5.82;;;5.22;;
22711;SDS011;11523;50.390;8.072;2022-08-20T06:32:46;6.25;;;5.65;;
22711;SDS011;11523;50.390;8.072;2022-08-20T06:35:13;6.82;;;6.22;;
22711;SDS011;11523;50.390;8.072;2022-08-20T06:37:39;6.18;;;5.60;;
22711;SDS011;11523;50.390;8.072;2022-08-20T06:40:10;6.32;;;5.07;;
22711;SDS011;11523;50.390;8.072;2022-08-20T06:42:36;6.90;;;6.40;;
22711;SDS011;11523;50.390;8.072;2022-08-20T06:45:07;6.88;;;6.38;;
22711;SDS011;11523;50.390;8.072;2022-08-20T06:47:33;7.47;;;6.85;;
22711;SDS011;11523;50.390;8.072;2022-08-20T06:49:59;6.28;;;5.78;;
22711;SDS011;11523;50.390;8.072;2022-08-20T06:52:25;8.30;;;6.57;;
22711;SDS011;11523;50.390;8.072;2022-08-20T06:54:51;6.35;;;5.85;;
22711;SDS011;11523;50.390;8.072;2022-08-20T06:57:17;8.25;;;5.72;;
22711;SDS011;11523;50.390;8.072;2022-08-20T06:59:43;5.93;;;5.43;;
22711;SDS011;11523;50.390;8.072;2022-08-20T07:02:09;6.60;;;5.07;;
22711;SDS011;11523;50.390;8.072;2022-08-20T07:04:35;6.15;;;5.60;;
22711;SDS011;11523;50.390;8.072;2022-08-20T07:07:01;5.72;;;5.25;;
22711;SDS011;11523;50.390;8.072;2022-08-20T07:09:28;7.07;;;5.63;;
22711;SDS011;11523;50.390;8.072;2022-08-20T07:11:54;6.78;;;6.18;;
22711;SDS011;11523;50.390;8.072;2022-08-20T07:14:20;6.38;;;5.82;;
22711;SDS011;11523;50.390;8.072;2022-08-20T07:16:46;5.70;;;5.20;;
22711;SDS011;11523;50.390;8.072;2022-08-20T07:19:13;7.28;;;4.88;;
22711;SDS011;11523;50.390;8.072;2022-08-20T07:21:39;5.85;;;5.30;;
22711;SDS011;11523;50.390;8.072;2022-08-20T07:24:05;5.70;;;5.30;;
22711;SDS011;11523;50.390;8.072;2022-08-20T07:26:33;4.80;;;4.43;;
22711;SDS011;11523;50.390;8.072;2022-08-20T07:28:59;4.90;;;4.47;;
22711;SDS011;11523;50.390;8.072;2022-08-20T07:31:25;6.60;;;5.10;;
22711;SDS011;11523;50.390;8.072;2022-08-20T07:34:10;6.32;;;5.78;;
22711;SDS011;11523;50.390;8.072;2022-08-20T07:36:37;5.95;;;5.55;;
22711;SDS011;11523;50.390;8.072;2022-08-20T07:39:03;6.60;;;5.28;;
22711;SDS011;11523;50.390;8.072;2022-08-20T07:41:30;6.60;;;6.10;;
22711;SDS011;11523;50.390;8.072;2022-08-20T07:43:56;6.28;;;5.75;;
22711;SDS011;11523;50.390;8.072;2022-08-20T07:46:22;6.32;;;5.82;;
22711;SDS011;11523;50.390;8.072;2022-08-20T07:48:48;6.60;;;6.00;;
22711;SDS011;11523;50.390;8.072;2022-08-20T07:51:19;6.80;;;6.20;;
22711;SDS011;11523;50.390;8.072;2022-08-20T07:53:46;7.00;;;6.40;;
22711;SDS011;11523;50.390;8.072;2022-08-20T07:56:13;6.95;;;6.40;;
22711;SDS011;11523;50.390;8.072;2022-08-20T07:58:44;5.80;;;5.35;;
22711;SDS011;11523;50.390;8.072;2022-08-20T08:01:13;5.78;;;5.38;;
22711;SDS011;11523;50.390;8.072;2022-08-20T08:03:40;4.97;;;4.57;;
22711;SDS011;11523;50.390;8.072;2022-08-20T08:06:06;5.50;;;5.10;;
22711;SDS011;11523;50.390;8.072;2022-08-20T08:08:33;5.78;;;5.20;;
22711;SDS011;11523;50.390;8.072;2022-08-20T08:11:00;4.70;;;4.30;;
22711;SDS011;11523;50.390;8.072;2022-08-20T08:13:28;5.40;;;5.00;;
22711;SDS011;11523;50.390;8.072;2022-08-20T08:15:56;5.00;;;4.60;;
22711;SDS011;11523;50.390;8.072;2022-08-20T08:18:23;5.03;;;4.32;;
22711;SDS011;11523;50.390;8.072;2022-08-20T08:20:50;4.43;;;4.13;;
22711;SDS011;11523;50.390;8.072;2022-08-20T08:23:17;5.03;;;4.63;;
22711;SDS011;11523;50.390;8.072;2022-08-20T08:25:44;4.72;;;4.32;;
22711;SDS011;11523;50.390;8.072;2022-08-20T08:28:10;5.93;;;5.35;;
22711;SDS011;11523;50.390;8.072;2022-08-20T08:30:40;5.97;;;5.53;;
22711;SDS011;11523;50.390;8.072;2022-08-20T08:33:16;5.25;;;4.75;;
22711;SDS011;11523;50.390;8.072;2022-08-20T08:35:51;5.32;;;4.82;;
22711;SDS011;11523;50.390;8.072;2022-08-20T08:38:18;6.25;;;4.90;;
22711;SDS011;11523;50.390;8.072;2022-08-20T08:40:47;5.30;;;4.50;;
22711;SDS011;11523;50.390;8.072;2022-08-20T08:43:13;5.03;;;4.45;;
22711;SDS011;11523;50.390;8.072;2022-08-20T08:45:41;5.03;;;4.22;;
22711;SDS011;11523;50.390;8.072;2022-08-20T08:48:13;4.47;;;4.18;;
22711;SDS011;11523;50.390;8.072;2022-08-20T08:50:40;4.22;;;3.92;;
22711;SDS011;11523;50.390;8.072;2022-08-20T08:53:10;4.65;;;4.35;;
22711;SDS011;11523;50.390;8.072;2022-08-20T08:55:40;4.05;;;3.75;;
22711;SDS011;11523;50.390;8.072;2022-08-20T08:58:06;3.67;;;3.40;;
22711;SDS011;11523;50.390;8.072;2022-08-20T09:00:34;3.75;;;3.45;;
22711;SDS011;11523;50.390;8.072;2022-08-20T09:03:04;3.63;;;3.42;;
22711;SDS011;11523;50.390;8.072;2022-08-20T09:05:36;3.30;;;3.00;;
22711;SDS011;11523;50.390;8.072;2022-08-20T09:08:05;3.65;;;3.25;;
22711;SDS011;11523;50.390;8.072;2022-08-20T09:10:32;3.70;;;3.40;;
22711;SDS011;11523;50.390;8.072;2022-08-20T09:12:58;4.47;;;3.58;;
22711;SDS011;11523;50.390;8.072;2022-08-20T09:15:27;3.78;;;3.47;;
22711;SDS011;11523;50.390;8.072;2022-08-20T09:18:00;4.00;;;3.10;;
22711;SDS011;11523;50.390;8.072;2022-08-20T09:20:26;4.90;;;2.78;;
22711;SDS011;11523;50.390;8.072;2022-08-20T09:22:52;2.90;;;2.70;;
22711;SDS011;11523;50.390;8.072;2022-08-20T09:25:18;3.42;;;2.75;;
22711;SDS011;11523;50.390;8.072;2022-08-20T09:27:44;3.42;;;2.80;;
22711;SDS011;11523;50.390;8.072;2022-08-20T09:30:11;4.50;;;2.83;;
22711;SDS011;11523;50.390;8.072;2022-08-20T09:32:37;3.78;;;2.75;;
22711;SDS011;11523;50.390;8.072;2022-08-20T09:35:03;2.55;;;2.35;;
22711;SDS011;11523;50.390;8.072;2022-08-20T09:37:30;2.05;;;1.95;;
22711;SDS011;11523;50.390;8.072;2022-08-20T09:39:56;2.15;;;1.95;;
22711;SDS011;11523;50.390;8.072;2022-08-20T09:42:23;1.92;;;1.83;;
22711;SDS011;11523;50.390;8.072;2022-08-20T09:44:50;2.35;;;2.15;;
22711;SDS011;11523;50.390;8.072;2022-08-20T09:47:16;2.42;;;2.00;;
22711;SDS011;11523;50.390;8.072;2022-08-20T09:49:42;2.30;;;2.10;;
22711;SDS011;11523;50.390;8.072;2022-08-20T09:52:10;3.42;;;2.55;;
22711;SDS011;11523;50.390;8.072;2022-08-20T09:54:41;3.00;;;2.45;;
22711;SDS011;11523;50.390;8.072;2022-08-20T09:57:07;4.90;;;2.78;;
22711;SDS011;11523;50.390;8.072;2022-08-20T09:59:34;2.85;;;2.53;;
22711;SDS011;11523;50.390;8.072;2022-08-20T10:02:07;2.78;;;2.55;;
22711;SDS011;11523;50.390;8.072;2022-08-20T10:04:33;2.80;;;2.60;;
22711;SDS011;11523;50.390;8.072;2022-08-20T10:06:59;2.78;;;2.53;;
22711;SDS011;11523;50.390;8.072;2022-08-20T10:09:25;2.70;;;2.50;;
22711;SDS011;11523;50.390;8.072;2022-08-20T10:11:51;3.35;;;3.10;;
22711;SDS011;11523;50.390;8.072;2022-08-20T10:14:17;2.65;;;2.45;;
22711;SDS011;11523;50.390;8.072;2022-08-20T10:16:43;2.90;;;2.50;;
22711;SDS011;11523;50.390;8.072;2022-08-20T10:19:09;2.60;;;2.40;;
22711;SDS011;11523;50.390;8.072;2022-08-20T10:21:35;2.72;;;2.53;;
22711;SDS011;11523;50.390;8.072;2022-08-20T10:24:01;3.28;;;2.33;;
22711;SDS011;11523;50.390;8.072;2022-08-20T10:26:27;2.35;;;2.15;;
22711;SDS011;11523;50.390;8.072;2022-08-20T10:28:53;2.20;;;2.03;;
22711;SDS011;11523;50.390;8.072;2022-08-20T10:31:19;2.50;;;2.30;;
22711;SDS011;11523;50.390;8.072;2022-08-20T10:33:45;2.45;;;2.33;;
22711;SDS011;11523;50.390;8.072;2022-08-20T10:36:12;2.95;;;2.15;;
22711;SDS011;11523;50.390;8.072;2022-08-20T10:38:39;2.40;;;2.20;;
22711;SDS011;11523;50.390;8.072;2022-08-20T10:41:05;2.50;;;1.83;;
22711;SDS011;11523;50.390;8.072;2022-08-20T10:43:31;2.55;;;1.80;;
22711;SDS011;11523;50.390;8.072;2022-08-20T10:45:57;2.28;;;1.70;;
22711;SDS011;11523;50.390;8.072;2022-08-20T10:48:23;1.70;;;1.60;;
22711;SDS011;11523;50.390;8.072;2022-08-20T10:50:49;2.10;;;2.00;;
22711;SDS011;11523;50.390;8.072;2022-08-20T10:53:15;2.88;;;2.35;;
22711;SDS011;11523;50.390;8.072;2022-08-20T10:55:42;2.33;;;2.13;;
22711;SDS011;11523;50.390;8.072;2022-08-20T10:58:07;1.92;;;1.83;;
22711;SDS011;11523;50.390;8.072;2022-08-20T11:00:34;2.05;;;1.73;;
22711;SDS011;11523;50.390;8.072;2022-08-20T11:03:00;1.80;;;1.70;;
22711;SDS011;11523;50.390;8.072;2022-08-20T11:05:26;1.88;;;1.77;;
22711;SDS011;11523;50.390;8.072;2022-08-20T11:07:52;2.05;;;1.80;;
22711;SDS011;11523;50.390;8.072;2022-08-20T11:10:19;1.60;;;1.50;;
22711;SDS011;11523;50.390;8.072;2022-08-20T11:12:45;2.20;;;1.50;;
22711;SDS011;11523;50.390;8.072;2022-08-20T11:15:11;1.55;;;1.45;;
22711;SDS011;11523;50.390;8.072;2022-08-20T11:17:39;1.50;;;1.40;;
22711;SDS011;11523;50.390;8.072;2022-08-20T11:20:05;1.80;;;1.48;;
22711;SDS011;11523;50.390;8.072;2022-08-20T11:22:31;1.60;;;1.50;;
22711;SDS011;11523;50.390;8.072;2022-08-20T11:24:57;1.55;;;1.40;;
22711;SDS011;11523;50.390;8.072;2022-08-20T11:27:25;1.60;;;1.50;;
22711;SDS011;11523;50.390;8.072;2022-08-20T11:29:51;2.35;;;1.70;;
22711;SDS011;11523;50.390;8.072;2022-08-20T11:32:17;1.52;;;1.42;;
22711;SDS011;11523;50.390;8.072;2022-08-20T11:34:43;1.60;;;1.20;;
22711;SDS011;11523;50.390;8.072;2022-08-20T11:37:10;1.27;;;1.17;;
22711;SDS011;11523;50.390;8.072;2022-08-20T11:39:36;3.72;;;1.30;;
22711;SDS011;11523;50.390;8.072;2022-08-20T11:42:02;1.85;;;1.40;;
22711;SDS011;11523;50.390;8.072;2022-08-20T11:44:28;2.05;;;1.20;;
22711;SDS011;11523;50.390;8.072;2022-08-20T11:46:54;3.22;;;1.50;;
22711;SDS011;11523;50.390;8.072;2022-08-20T11:49:23;1.70;;;1.60;;
22711;SDS011;11523;50.390;8.072;2022-08-20T11:51:49;3.08;;;1.60;;
22711;SDS011;11523;50.390;8.072;2022-08-20T11:54:15;1.67;;;1.45;;
22711;SDS011;11523;50.390;8.072;2022-08-20T11:56:41;3.78;;;1.70;;
22711;SDS011;11523;50.390;8.072;2022-08-20T11:59:07;1.75;;;1.52;;
22711;SDS011;11523;50.390;8.072;2022-08-20T12:01:33;1.95;;;1.73;;
22711;SDS011;11523;50.390;8.072;2022-08-20T12:03:59;2.75;;;1.90;;
22711;SDS011;11523;50.390;8.072;2022-08-20T12:06:25;3.60;;;2.00;;
22711;SDS011;11523;50.390;8.072;2022-08-20T12:08:51;2.65;;;2.28;;
22711;SDS011;11523;50.390;8.072;2022-08-20T12:11:17;4.75;;;1.80;;
22711;SDS011;11523;50.390;8.072;2022-08-20T12:13:43;1.55;;;1.45;;
22711;SDS011;11523;50.390;8.072;2022-08-20T12:16:09;1.92;;;1.70;;
22711;SDS011;11523;50.390;8.072;2022-08-20T12:18:35;2.10;;;1.90;;
22711;SDS011;11523;50.390;8.072;2022-08-20T12:21:01;2.03;;;1.70;;
22711;SDS011;11523;50.390;8.072;2022-08-20T12:23:27;2.50;;;2.08;;
22711;SDS011;11523;50.390;8.072;2022-08-20T12:25:53;3.33;;;1.73;;
22711;SDS011;11523;50.390;8.072;2022-08-20T12:28:19;2.45;;;1.90;;
22711;SDS011;11523;50.390;8.072;2022-08-20T12:30:45;2.28;;;1.90;;
22711;SDS011;11523;50.390;8.072;2022-08-20T12:33:11;1.88;;;1.77;;
22711;SDS011;11523;50.390;8.072;2022-08-20T12:35:38;2.95;;;1.60;;
22711;SDS011;11523;50.390;8.072;2022-08-20T12:38:05;1.70;;;1.60;;
22711;SDS011;11523;50.390;8.072;2022-08-20T12:40:31;1.92;;;1.65;;
22711;SDS011;11523;50.390;8.072;2022-08-20T12:42:58;2.80;;;1.92;;
22711;SDS011;11523;50.390;8.072;2022-08-20T12:45:24;2.20;;;2.00;;
22711;SDS011;11523;50.390;8.072;2022-08-20T12:47:50;2.90;;;1.88;;
22711;SDS011;11523;50.390;8.072;2022-08-20T12:50:20;2.72;;;2.00;;
22711;SDS011;11523;50.390;8.072;2022-08-20T12:52:47;2.00;;;1.90;;
22711;SDS011;11523;50.390;8.072;2022-08-20T12:55:14;3.20;;;1.88;;
22711;SDS011;11523;50.390;8.072;2022-08-20T12:57:41;6.20;;;2.00;;
22711;SDS011;11523;50.390;8.072;2022-08-20T13:00:28;2.10;;;1.75;;
22711;SDS011;11523;50.390;8.072;2022-08-20T13:02:54;1.80;;;1.70;;
22711;SDS011;11523;50.390;8.072;2022-08-20T13:05:21;2.38;;;1.70;;
22711;SDS011;11523;50.390;8.072;2022-08-20T13:07:47;1.65;;;1.55;;
22711;SDS011;11523;50.390;8.072;2022-08-20T13:10:15;3.90;;;1.50;;
22711;SDS011;11523;50.390;8.072;2022-08-20T13:12:41;2.65;;;1.60;;
22711;SDS011;11523;50.390;8.072;2022-08-20T13:15:07;4.47;;;1.60;;
22711;SDS011;11523;50.390;8.072;2022-08-20T13:17:33;1.58;;;1.45;;
22711;SDS011;11523;50.390;8.072;2022-08-20T13:19:59;1.60;;;1.50;;
22711;SDS011;11523;50.390;8.072;2022-08-20T13:22:25;1.60;;;1.50;;
22711;SDS011;11523;50.390;8.072;2022-08-20T13:24:51;3.72;;;1.52;;
22711;SDS011;11523;50.390;8.072;2022-08-20T13:27:17;2.80;;;1.67;;
22711;SDS011;11523;50.390;8.072;2022-08-20T13:29:44;1.58;;;1.48;;
22711;SDS011;11523;50.390;8.072;2022-08-20T13:32:10;2.13;;;1.58;;
22711;SDS011;11523;50.390;8.072;2022-08-20T13:34:36;2.47;;;1.85;;
22711;SDS011;11523;50.390;8.072;2022-08-20T13:37:10;3.28;;;1.70;;
22711;SDS011;11523;50.390;8.072;2022-08-20T13:39:37;2.50;;;1.83;;
22711;SDS011;11523;50.390;8.072;2022-08-20T13:42:03;3.03;;;1.83;;
22711;SDS011;11523;50.390;8.072;2022-08-20T13:44:29;4.95;;;1.98;;
22711;SDS011;11523;50.390;8.072;2022-08-20T13:46:55;2.08;;;1.70;;
22711;SDS011;11523;50.390;8.072;2022-08-20T13:49:21;2.03;;;1.70;;
22711;SDS011;11523;50.390;8.072;2022-08-20T13:51:47;3.65;;;1.63;;
22711;SDS011;11523;50.390;8.072;2022-08-20T13:54:13;4.82;;;1.90;;
22711;SDS011;11523;50.390;8.072;2022-08-20T13:56:39;2.05;;;1.85;;
22711;SDS011;11523;50.390;8.072;2022-08-20T13:59:05;1.60;;;1.50;;
22711;SDS011;11523;50.390;8.072;2022-08-20T14:01:31;1.95;;;1.80;;
22711;SDS011;11523;50.390;8.072;2022-08-20T14:03:57;2.25;;;2.05;;
22711;SDS011;11523;50.390;8.072;2022-08-20T14:06:23;4.38;;;2.30;;
22711;SDS011;11523;50.390;8.072;2022-08-20T14:08:49;1.95;;;1.80;;
22711;SDS011;11523;50.390;8.072;2022-08-20T14:11:15;3.65;;;2.20;;
22711;SDS011;11523;50.390;8.072;2022-08-20T14:13:41;2.40;;;2.30;;
22711;SDS011;11523;50.390;8.072;2022-08-20T14:16:08;2.90;;;2.10;;
22711;SDS011;11523;50.390;8.072;2022-08-20T14:18:33;3.58;;;1.83;;
22711;SDS011;11523;50.390;8.072;2022-08-20T14:20:59;2.45;;;2.25;;
22711;SDS011;11523;50.390;8.072;2022-08-20T14:23:25;3.00;;;2.17;;
22711;SDS011;11523;50.390;8.072;2022-08-20T14:25:51;2.35;;;2.15;;
22711;SDS011;11523;50.390;8.072;2022-08-20T14:28:19;3.85;;;2.10;;
22711;SDS011;11523;50.390;8.072;2022-08-20T14:30:45;4.43;;;2.30;;
22711;SDS011;11523;50.390;8.072;2022-08-20T14:33:12;3.13;;;2.15;;
22711;SDS011;11523;50.390;8.072;2022-08-20T14:35:38;2.47;;;1.88;;
22711;SDS011;11523;50.390;8.072;2022-08-20T14:38:04;3.08;;;2.33;;
22711;SDS011;11523;50.390;8.072;2022-08-20T14:40:31;2.80;;;1.83;;
22711;SDS011;11523;50.390;8.072;2022-08-20T14:42:57;3.13;;;1.83;;
22711;SDS011;11523;50.390;8.072;2022-08-20T14:45:23;3.28;;;2.08;;
22711;SDS011;11523;50.390;8.072;2022-08-20T14:47:50;3.05;;;2.03;;
22711;SDS011;11523;50.390;8.072;2022-08-20T14:50:21;3.45;;;2.30;;
22711;SDS011;11523;50.390;8.072;2022-08-20T14:52:48;2.53;;;2.30;;
22711;SDS011;11523;50.390;8.072;2022-08-20T14:55:16;2.33;;;2.10;;
22711;SDS011;11523;50.390;8.072;2022-08-20T14:57:42;3.42;;;2.53;;
22711;SDS011;11523;50.390;8.072;2022-08-20T15:00:10;3.53;;;2.20;;
22711;SDS011;11523;50.390;8.072;2022-08-20T15:02:37;2.45;;;2.25;;
22711;SDS011;11523;50.390;8.072;2022-08-20T15:05:03;3.20;;;2.08;;
22711;SDS011;11523;50.390;8.072;2022-08-20T15:07:30;2.90;;;2.35;;
22711;SDS011;11523;50.390;8.072;2022-08-20T15:10:04;3.53;;;2.17;;
22711;SDS011;11523;50.390;8.072;2022-08-20T15:12:31;2.80;;;2.13;;
22711;SDS011;11523;50.390;8.072;2022-08-20T15:14:59;4.57;;;2.28;;
22711;SDS011;11523;50.390;8.072;2022-08-20T15:17:27;4.00;;;2.03;;
22711;SDS011;11523;50.390;8.072;2022-08-20T15:19:53;5.20;;;2.22;;
22711;SDS011;11523;50.390;8.072;2022-08-20T15:22:20;6.15;;;2.20;;
22711;SDS011;11523;50.390;8.072;2022-08-20T15:24:46;3.00;;;2.10;;
22711;SDS011;11523;50.390;8.072;2022-08-20T15:27:17;3.33;;;2.20;;
22711;SDS011;11523;50.390;8.072;2022-08-20T15:29:43;2.78;;;2.00;;
22711;SDS011;11523;50.390;8.072;2022-08-20T15:32:09;2.78;;;2.15;;
22711;SDS011;11523;50.390;8.072;2022-08-20T15:34:36;5.25;;;2.08;;
22711;SDS011;11523;50.390;8.072;2022-08-20T15:37:12;2.63;;;2.35;;
22711;SDS011;11523;50.390;8.072;2022-08-20T15:39:40;3.13;;;2.20;;
22711;SDS011;11523;50.390;8.072;2022-08-20T15:42:06;5.45;;;2.35;;
22711;SDS011;11523;50.390;8.072;2022-08-20T15:44:33;3.05;;;2.60;;
22711;SDS011;11523;50.390;8.072;2022-08-20T15:47:19;2.53;;;2.33;;
22711;SDS011;11523;50.390;8.072;2022-08-20T15:49:45;4.13;;;2.53;;
22711;SDS011;11523;50.390;8.072;2022-08-20T15:52:12;3.40;;;2.58;;
22711;SDS011;11523;50.390;8.072;2022-08-20T15:54:45;2.97;;;2.23;;
22711;SDS011;11523;50.390;8.072;2022-08-20T16:13:21;4.72;;;3.42;;
22711;SDS011;11523;50.390;8.072;2022-08-20T16:15:50;4.82;;;3.33;;
22711;SDS011;11523;50.390;8.072;2022-08-20T16:18:21;4.10;;;3.20;;
22711;SDS011;11523;50.390;8.072;2022-08-20T16:20:49;5.43;;;3.55;;
22711;SDS011;11523;50.390;8.072;2022-08-20T16:23:17;4.05;;;3.55;;
22711;SDS011;11523;50.390;8.072;2022-08-20T16:30:45;6.70;;;3.35;;
22711;SDS011;11523;50.390;8.072;2022-08-20T16:33:13;3.97;;;3.58;;
22711;SDS011;11523;50.390;8.072;2022-08-20T16:35:46;4.50;;;3.47;;
22711;SDS011;11523;50.390;8.072;2022-08-20T16:40:53;5.40;;;3.60;;
22711;SDS011;11523;50.390;8.072;2022-08-20T16:43:23;4.15;;;3.50;;
22711;SDS011;11523;50.390;8.072;2022-08-20T16:45:54;4.05;;;3.60;;
22711;SDS011;11523;50.390;8.072;2022-08-20T16:48:22;6.85;;;3.95;;
22711;SDS011;11523;50.390;8.072;2022-08-20T16:53:19;4.70;;;3.90;;
22711;SDS011;11523;50.390;8.072;2022-08-20T16:55:46;4.68;;;3.97;;
22711;SDS011;11523;50.390;8.072;2022-08-20T16:58:12;6.55;;;4.28;;
22711;SDS011;11523;50.390;8.072;2022-08-20T17:00:44;5.50;;;4.30;;
22711;SDS011;11523;50.390;8.072;2022-08-20T17:03:27;5.50;;;4.50;;
22711;SDS011;11523;50.390;8.072;2022-08-20T17:05:54;6.93;;;4.63;;
22711;SDS011;11523;50.390;8.072;2022-08-20T17:08:41;5.03;;;4.28;;
22711;SDS011;11523;50.390;8.072;2022-08-20T17:11:12;5.07;;;4.55;;
22711;SDS011;11523;50.390;8.072;2022-08-20T17:13:42;6.85;;;4.50;;
22711;SDS011;11523;50.390;8.072;2022-08-20T17:18:38;6.30;;;4.30;;
22711;SDS011;11523;50.390;8.072;2022-08-20T17:23:36;6.18;;;4.63;;
22711;SDS011;11523;50.390;8.072;2022-08-20T17:26:16;6.32;;;4.38;;
22711;SDS011;11523;50.390;8.072;2022-08-20T17:28:48;9.65;;;5.00;;
22711;SDS011;11523;50.390;8.072;2022-08-20T17:31:33;5.70;;;4.45;;
22711;SDS011;11523;50.390;8.072;2022-08-20T17:33:59;6.57;;;4.00;;
22711;SDS011;11523;50.390;8.072;2022-08-20T17:36:25;6.97;;;4.10;;
22711;SDS011;11523;50.390;8.072;2022-08-20T17:38:53;7.18;;;4.25;;
22711;SDS011;11523;50.390;8.072;2022-08-20T17:41:21;5.57;;;3.88;;
22711;SDS011;11523;50.390;8.072;2022-08-20T17:43:58;7.95;;;4.78;;
22711;SDS011;11523;50.390;8.072;2022-08-20T17:46:26;7.82;;;3.85;;
22711;SDS011;11523;50.390;8.072;2022-08-20T17:48:53;7.72;;;4.40;;
22711;SDS011;11523;50.390;8.072;2022-08-20T17:51:20;8.60;;;4.38;;
22711;SDS011;11523;50.390;8.072;2022-08-20T17:53:51;7.40;;;4.55;;
22711;SDS011;11523;50.390;8.072;2022-08-20T17:56:21;6.07;;;4.00;;
22711;SDS011;11523;50.390;8.072;2022-08-20T17:58:54;6.75;;;4.28;;
22711;SDS011;11523;50.390;8.072;2022-08-20T18:03:49;7.53;;;4.30;;
22711;SDS011;11523;50.390;8.072;2022-08-20T18:06:22;7.97;;;3.88;;
22711;SDS011;11523;50.390;8.072;2022-08-20T18:11:28;10.55;;;4.20;;
22711;SDS011;11523;50.390;8.072;2022-08-20T18:19:17;7.50;;;3.75;;
22711;SDS011;11523;50.390;8.072;2022-08-20T18:22:05;9.40;;;4.03;;
22711;SDS011;11523;50.390;8.072;2022-08-20T18:24:44;6.57;;;3.83;;
22711;SDS011;11523;50.390;8.072;2022-08-20T18:27:14;8.43;;;3.92;;
22711;SDS011;11523;50.390;8.072;2022-08-20T18:29:43;7.53;;;3.95;;
22711;SDS011;11523;50.390;8.072;2022-08-20T18:32:27;8.50;;;3.75;;
22711;SDS011;11523;50.390;8.072;2022-08-20T18:34:54;8.05;;;4.03;;
22711;SDS011;11523;50.390;8.072;2022-08-20T18:37:31;8.82;;;3.58;;
22711;SDS011;11523;50.390;8.072;2022-08-20T18:40:05;7.00;;;3.78;;
22711;SDS011;11523;50.390;8.072;2022-08-20T18:42:33;6.90;;;4.20;;
22711;SDS011;11523;50.390;8.072;2022-08-20T18:44:59;9.52;;;3.72;;
22711;SDS011;11523;50.390;8.072;2022-08-20T18:50:03;6.05;;;3.90;;
22711;SDS011;11523;50.390;8.072;2022-08-20T18:52:30;10.02;;;4.10;;
22711;SDS011;11523;50.390;8.072;2022-08-20T18:54:58;9.63;;;3.63;;
22711;SDS011;11523;50.390;8.072;2022-08-20T18:57:26;7.28;;;4.07;;
22711;SDS011;11523;50.390;8.072;2022-08-20T19:02:26;8.23;;;3.83;;
22711;SDS011;11523;50.390;8.072;2022-08-20T19:04:57;6.00;;;3.65;;
22711;SDS011;11523;50.390;8.072;2022-08-20T19:07:23;6.28;;;3.75;;
22711;SDS011;11523;50.390;8.072;2022-08-20T19:10:03;7.93;;;3.80;;
22711;SDS011;11523;50.390;8.072;2022-08-20T19:12:48;7.25;;;4.18;;
22711;SDS011;11523;50.390;8.072;2022-08-20T19:15:20;9.48;;;3.55;;
22711;SDS011;11523;50.390;8.072;2022-08-20T19:20:24;6.18;;;3.53;;
22711;SDS011;11523;50.390;8.072;2022-08-20T19:22:51;7.05;;;3.40;;
22711;SDS011;11523;50.390;8.072;2022-08-20T19:25:26;6.75;;;3.35;;
22711;SDS011;11523;50.390;8.072;2022-08-20T19:27:53;7.57;;;3.80;;
22711;SDS011;11523;50.390;8.072;2022-08-20T19:32:57;7.35;;;3.55;;
22711;SDS011;11523;50.390;8.072;2022-08-20T19:35:23;7.97;;;4.20;;
22711;SDS011;11523;50.390;8.072;2022-08-20T19:37:48;7.57;;;3.67;;
22711;SDS011;11523;50.390;8.072;2022-08-20T19:40:22;8.27;;;3.70;;
22711;SDS011;11523;50.390;8.072;2022-08-20T19:42:49;4.30;;;3.30;;
22711;SDS011;11523;50.390;8.072;2022-08-20T19:55:37;6.22;;;3.70;;